Time;durP1;ratioP1;P1;durP2;ratioP2;P2;SDS_P1;SDS_P2;PMS_P1;PMS_P2;Temp;Humidity;BMP_temperature;BMP_pressure;BME280_temperature;BME280_humidity;BME280_pressure;Samples;Min_cycle;Max_cycle;Signal;HPM_P1;HPM_P2
2023/10/26 00:01:31;;;;;;;1.43;1.07;;;21.80;94.10;;;;;;4982732;28;20456;-63
2023/10/26 00:03:59;;;;;;;1.20;1.00;;;21.80;94.10;;;;;;4980780;28;20550;-63
2023/10/26 00:06:26;;;;;;;1.20;1.10;;;21.80;94.10;;;;;;4981858;28;20489;-63
2023/10/26 00:08:52;;;;;;;1.73;1.17;;;21.80;94.10;;;;;;4983072;28;20466;-63
2023/10/26 00:11:19;;;;;;;1.33;1.00;;;21.80;94.10;;;;;;4981551;28;21112;-63
2023/10/26 00:13:47;;;;;;;1.07;0.83;;;21.70;94.10;;;;;;4981196;28;20936;-63
2023/10/26 00:16:14;;;;;;;1.20;0.97;;;21.70;94.10;;;;;;4983012;28;20480;-63
2023/10/26 00:18:41;;;;;;;1.10;1.00;;;21.70;94.10;;;;;;4983529;28;22298;-63
2023/10/26 00:21:07;;;;;;;1.40;1.23;;;21.70;94.10;;;;;;4981645;28;20899;-63
2023/10/26 00:23:34;;;;;;;1.43;1.33;;;21.70;94.10;;;;;;4983097;28;20539;-63
2023/10/26 00:26:01;;;;;;;1.23;1.13;;;21.70;94.10;;;;;;4981790;28;20480;-63
2023/10/26 00:28:27;;;;;;;1.33;1.23;;;21.70;94.10;;;;;;4983907;28;20469;-63
2023/10/26 00:30:55;;;;;;;1.00;0.90;;;21.70;94.20;;;;;;4982684;28;20544;-63
2023/10/26 00:33:23;;;;;;;1.33;1.17;;;21.70;94.10;;;;;;4982567;28;20991;-63
2023/10/26 00:35:52;;;;;;;1.20;1.00;;;21.70;94.10;;;;;;4983634;28;20480;-63
2023/10/26 00:38:19;;;;;;;1.40;1.20;;;21.60;94.10;;;;;;4983635;28;21141;-63
2023/10/26 00:40:46;;;;;;;1.10;0.90;;;21.60;94.10;;;;;;4983230;28;20467;-63
2023/10/26 00:43:20;;;;;;;1.10;0.93;;;21.60;94.10;;;;;;4985204;28;20459;-63
2023/10/26 00:45:50;;;;;;;1.10;0.93;;;21.60;94.20;;;;;;4982605;28;20939;-63
2023/10/26 00:48:19;;;;;;;1.80;1.10;;;21.60;94.20;;;;;;4981485;28;20487;-63
2023/10/26 00:50:46;;;;;;;1.50;1.20;;;21.60;94.20;;;;;;4981242;28;20496;-63
2023/10/26 00:53:14;;;;;;;1.20;1.00;;;21.60;94.20;;;;;;4982202;28;20983;-63
2023/10/26 00:55:41;;;;;;;1.70;1.20;;;21.60;94.20;;;;;;4980468;28;20466;-63
2023/10/26 00:58:09;;;;;;;1.00;0.80;;;21.60;94.20;;;;;;4981974;28;21093;-63
2023/10/26 01:00:35;;;;;;;1.10;0.90;;;21.60;94.20;;;;;;4982630;28;20474;-63
2023/10/26 01:03:02;;;;;;;1.10;0.90;;;21.60;94.20;;;;;;4981616;28;20479;-63
2023/10/26 01:05:30;;;;;;;1.00;0.80;;;21.60;94.20;;;;;;4982610;28;20464;-63
2023/10/26 01:07:57;;;;;;;1.10;1.00;;;21.70;94.40;;;;;;4982780;28;20486;-63
2023/10/26 01:10:26;;;;;;;1.23;1.03;;;21.50;94.20;;;;;;4983664;28;20468;-63
2023/10/26 01:12:53;;;;;;;1.10;0.97;;;21.50;94.20;;;;;;4983403;28;20823;-63
2023/10/26 01:15:21;;;;;;;1.37;0.93;;;21.50;94.20;;;;;;4983364;28;20475;-63
2023/10/26 01:17:47;;;;;;;1.10;0.90;;;21.50;94.20;;;;;;4984369;28;20462;-63
2023/10/26 01:20:17;;;;;;;1.00;0.90;;;21.50;94.20;;;;;;4982475;28;22170;-63
2023/10/26 01:22:45;;;;;;;1.30;1.07;;;21.50;94.30;;;;;;4984676;28;20820;-63
2023/10/26 01:25:12;;;;;;;1.30;1.10;;;21.50;94.20;;;;;;4978270;28;20470;-63
2023/10/26 01:27:39;;;;;;;1.30;1.20;;;21.50;94.20;;;;;;4984432;28;20820;-63
2023/10/26 01:30:07;;;;;;;1.10;0.97;;;21.50;94.20;;;;;;4982734;28;22151;-63
2023/10/26 01:32:34;;;;;;;1.20;1.00;;;21.50;94.50;;;;;;4983506;28;20468;-63
2023/10/26 01:35:00;;;;;;;1.00;0.90;;;21.50;94.20;;;;;;4980768;28;20452;-63
2023/10/26 01:37:27;;;;;;;1.27;1.10;;;21.50;94.20;;;;;;4984811;28;20474;-63
2023/10/26 01:39:55;;;;;;;1.10;0.90;;;21.50;94.30;;;;;;4984079;28;20459;-63
2023/10/26 01:42:22;;;;;;;1.43;1.20;;;21.40;94.20;;;;;;4983838;28;20960;-63
2023/10/26 01:44:49;;;;;;;1.20;0.80;;;21.50;94.30;;;;;;4985729;28;20525;-63
2023/10/26 01:47:17;;;;;;;1.20;1.00;;;21.40;94.20;;;;;;4984003;28;20479;-63
2023/10/26 01:49:44;;;;;;;1.40;1.00;;;21.30;94.20;;;;;;4981698;28;20935;-63
2023/10/26 01:52:11;;;;;;;1.10;0.90;;;21.40;94.20;;;;;;4984908;28;20201;-63
2023/10/26 01:54:37;;;;;;;1.40;1.10;;;21.40;94.20;;;;;;4985401;28;20613;-63
2023/10/26 01:57:06;;;;;;;1.37;0.97;;;21.40;94.20;;;;;;4984626;28;20791;-63
2023/10/26 01:59:32;;;;;;;1.10;0.90;;;21.50;94.30;;;;;;4985042;28;20472;-63
2023/10/26 02:01:59;;;;;;;1.20;1.10;;;21.40;94.20;;;;;;4985016;28;20482;-63
2023/10/26 02:04:26;;;;;;;1.10;1.00;;;21.40;94.20;;;;;;4982498;28;20823;-63
2023/10/26 02:06:52;;;;;;;1.10;1.00;;;21.40;94.30;;;;;;4986511;28;20482;-63
2023/10/26 02:09:19;;;;;;;1.40;0.97;;;21.40;94.30;;;;;;4986941;28;20816;-63
2023/10/26 02:11:46;;;;;;;1.30;0.90;;;21.40;94.30;;;;;;4987234;28;20464;-63
2023/10/26 02:14:14;;;;;;;1.20;1.10;;;21.40;94.30;;;;;;4985646;28;20456;-63
2023/10/26 02:16:40;;;;;;;1.23;1.00;;;21.40;94.30;;;;;;4985465;28;20463;-63
2023/10/26 02:19:07;;;;;;;1.02;0.80;;;21.30;94.20;;;;;;4981364;28;20764;-63
2023/10/26 02:21:35;;;;;;;1.30;1.07;;;21.40;94.30;;;;;;4986791;28;20213;-63
2023/10/26 02:24:02;;;;;;;1.20;1.00;;;21.40;94.30;;;;;;4985787;28;20848;-63
2023/10/26 02:26:28;;;;;;;1.20;1.00;;;21.30;94.30;;;;;;4984773;28;20494;-63
2023/10/26 02:28:55;;;;;;;1.47;1.20;;;21.30;94.30;;;;;;4986109;28;20486;-63
2023/10/26 02:31:23;;;;;;;1.00;0.73;;;21.40;94.40;;;;;;4986085;28;20459;-63
2023/10/26 02:33:50;;;;;;;1.10;1.00;;;21.30;94.30;;;;;;4983292;28;20820;-63
2023/10/26 02:36:17;;;;;;;1.10;0.90;;;21.30;94.30;;;;;;4982449;28;20979;-63
2023/10/26 02:38:43;;;;;;;1.10;1.00;;;21.30;94.30;;;;;;4983467;28;20467;-63
2023/10/26 02:41:10;;;;;;;1.10;0.90;;;21.30;94.30;;;;;;4982583;28;20960;-63
2023/10/26 02:43:37;;;;;;;1.20;0.90;;;21.30;94.40;;;;;;4980214;28;20189;-63
2023/10/26 02:46:05;;;;;;;1.37;1.27;;;21.30;94.40;;;;;;4978472;28;20471;-63
2023/10/26 02:48:33;;;;;;;1.20;0.85;;;21.30;94.40;;;;;;4981356;28;20632;-63
2023/10/26 02:51:00;;;;;;;1.13;0.90;;;21.30;94.80;;;;;;4979362;28;20257;-63
2023/10/26 02:53:27;;;;;;;1.00;0.83;;;21.30;94.40;;;;;;4979262;28;20510;-63
2023/10/26 02:55:54;;;;;;;1.10;0.90;;;21.30;94.50;;;;;;4977987;28;20470;-63
2023/10/26 02:58:20;;;;;;;1.07;0.90;;;21.30;94.50;;;;;;4980883;28;20851;-63
2023/10/26 03:00:47;;;;;;;1.20;1.00;;;21.20;94.40;;;;;;4981412;28;20467;-63
2023/10/26 03:03:14;;;;;;;1.60;1.10;;;21.30;94.50;;;;;;4980986;28;20503;-63
2023/10/26 03:05:43;;;;;;;1.10;0.80;;;21.20;94.50;;;;;;4979738;28;20211;-63
2023/10/26 03:08:11;;;;;;;1.17;1.08;;;21.30;94.50;;;;;;4982551;28;20801;-63
2023/10/26 03:10:38;;;;;;;1.23;0.90;;;21.20;94.90;;;;;;4983032;28;20312;-63
2023/10/26 03:13:05;;;;;;;1.13;1.00;;;21.20;94.50;;;;;;4978892;28;20208;-63
2023/10/26 03:15:32;;;;;;;1.00;0.90;;;21.20;94.50;;;;;;4980467;28;20469;-63
2023/10/26 03:17:59;;;;;;;1.47;1.37;;;21.20;94.60;;;;;;4982220;28;20461;-63
2023/10/26 03:20:25;;;;;;;1.00;0.90;;;21.20;94.50;;;;;;4982383;28;20459;-63
2023/10/26 03:22:53;;;;;;;1.40;1.30;;;21.20;94.50;;;;;;4981716;28;20205;-63
2023/10/26 03:25:20;;;;;;;1.10;0.87;;;21.20;94.60;;;;;;4981044;28;20196;-63
2023/10/26 03:27:47;;;;;;;1.20;1.00;;;21.20;94.60;;;;;;4978403;28;20896;-63
2023/10/26 03:30:15;;;;;;;1.10;0.90;;;21.10;94.60;;;;;;4979703;28;20212;-63
2023/10/26 03:32:42;;;;;;;1.30;0.90;;;21.20;94.60;;;;;;4981593;28;20292;-63
2023/10/26 03:35:09;;;;;;;1.47;0.90;;;21.20;94.60;;;;;;4978678;28;21607;-63
2023/10/26 03:37:36;;;;;;;1.30;1.10;;;21.10;94.50;;;;;;4981019;28;20463;-63
2023/10/26 03:40:05;;;;;;;2.50;0.80;;;21.10;94.60;;;;;;4980990;28;20459;-63
2023/10/26 03:42:32;;;;;;;1.00;0.80;;;21.10;94.60;;;;;;4978803;28;20455;-63
2023/10/26 03:44:59;;;;;;;1.10;1.00;;;21.10;94.60;;;;;;4980130;28;20474;-63
2023/10/26 03:47:26;;;;;;;1.20;1.10;;;21.10;94.60;;;;;;4980166;28;20538;-63
2023/10/26 03:49:52;;;;;;;1.67;0.97;;;21.10;94.60;;;;;;4979618;28;20471;-63
2023/10/26 03:52:19;;;;;;;1.00;0.90;;;21.10;94.60;;;;;;4983079;28;20495;-63
2023/10/26 03:54:46;;;;;;;1.23;1.10;;;21.10;94.70;;;;;;4980257;28;21284;-63
2023/10/26 03:57:15;;;;;;;1.05;0.90;;;21.10;94.60;;;;;;4979972;28;20851;-63
2023/10/26 03:59:42;;;;;;;1.00;0.90;;;21.20;94.70;;;;;;4981561;28;20221;-63
2023/10/26 04:02:09;;;;;;;1.20;0.90;;;21.00;94.60;;;;;;4979073;28;20478;-63
2023/10/26 04:04:35;;;;;;;1.50;0.93;;;21.10;94.70;;;;;;4978002;28;20894;-63
2023/10/26 04:07:02;;;;;;;1.30;0.93;;;21.10;94.70;;;;;;4978574;28;20482;-63
2023/10/26 04:09:29;;;;;;;1.20;1.00;;;21.10;94.70;;;;;;4982016;28;20825;-63
2023/10/26 04:11:56;;;;;;;1.20;1.00;;;21.10;94.70;;;;;;4980495;28;20920;-63
2023/10/26 04:14:24;;;;;;;1.00;0.80;;;21.10;94.70;;;;;;4981073;28;20469;-63
2023/10/26 04:16:50;;;;;;;1.33;1.10;;;21.10;94.70;;;;;;4982184;28;20467;-63
2023/10/26 04:19:17;;;;;;;1.00;0.80;;;21.10;94.80;;;;;;4981554;28;20955;-63
2023/10/26 04:21:44;;;;;;;1.00;0.90;;;21.00;94.70;;;;;;4982632;28;20807;-63
2023/10/26 04:24:11;;;;;;;1.00;0.90;;;21.00;94.70;;;;;;4982175;28;20935;-63
2023/10/26 04:26:37;;;;;;;1.00;0.90;;;21.10;94.80;;;;;;4981967;28;20473;-63
2023/10/26 04:29:05;;;;;;;1.10;1.00;;;21.00;94.70;;;;;;4981790;28;20511;-63
2023/10/26 04:31:33;;;;;;;1.10;1.00;;;21.10;94.80;;;;;;4981193;28;20529;-63
2023/10/26 04:34:00;;;;;;;1.30;1.00;;;21.00;94.80;;;;;;4979215;28;20590;-63
2023/10/26 04:36:27;;;;;;;1.03;0.90;;;21.00;94.70;;;;;;4981799;28;20958;-63
2023/10/26 04:38:53;;;;;;;1.07;0.93;;;21.10;94.80;;;;;;4983766;28;20467;-63
2023/10/26 04:41:20;;;;;;;1.00;0.90;;;21.00;94.80;;;;;;4983070;28;20987;-63
2023/10/26 04:43:47;;;;;;;1.07;0.80;;;21.00;94.80;;;;;;4985610;28;20546;-63
2023/10/26 04:46:14;;;;;;;1.10;0.97;;;21.00;94.80;;;;;;4985078;28;20460;-63
2023/10/26 04:48:42;;;;;;;1.10;0.80;;;21.00;95.10;;;;;;4985258;28;20478;-63
2023/10/26 04:51:09;;;;;;;1.00;0.80;;;21.00;94.80;;;;;;4985654;28;20468;-63
2023/10/26 04:53:35;;;;;;;1.05;0.80;;;21.00;94.80;;;;;;4984710;28;20581;-63
2023/10/26 04:56:02;;;;;;;1.10;1.00;;;21.00;94.90;;;;;;4981427;28;20207;-63
2023/10/26 04:58:29;;;;;;;1.40;0.93;;;21.00;94.90;;;;;;4982766;28;20464;-63
2023/10/26 05:00:56;;;;;;;1.30;0.90;;;21.00;94.90;;;;;;4982738;28;20466;-63
2023/10/26 05:03:23;;;;;;;1.07;0.73;;;21.00;94.90;;;;;;4983077;28;20586;-63
2023/10/26 05:05:52;;;;;;;1.10;1.00;;;21.00;94.90;;;;;;4981165;28;20826;-63
2023/10/26 05:08:19;;;;;;;1.03;0.80;;;21.00;95.00;;;;;;4983290;28;21196;-63
2023/10/26 05:10:46;;;;;;;1.27;1.03;;;21.00;94.90;;;;;;4984334;28;20468;-63
2023/10/26 05:13:13;;;;;;;1.10;0.90;;;21.00;95.00;;;;;;4981992;28;20469;-63
2023/10/26 05:15:39;;;;;;;1.17;0.97;;;21.00;95.00;;;;;;4981097;28;20464;-63
2023/10/26 05:18:06;;;;;;;1.10;0.88;;;21.00;95.30;;;;;;4979824;28;20547;-63
2023/10/26 05:20:33;;;;;;;1.10;0.73;;;20.90;94.90;;;;;;4982583;28;20202;-63
2023/10/26 05:23:02;;;;;;;1.00;0.90;;;20.90;94.90;;;;;;4982715;28;20581;-64
2023/10/26 05:25:30;;;;;;;0.90;0.70;;;21.00;95.00;;;;;;4981591;28;20525;-63
2023/10/26 05:27:56;;;;;;;1.23;0.97;;;21.00;95.00;;;;;;4981241;28;20472;-63
2023/10/26 05:30:23;;;;;;;0.90;0.80;;;20.90;95.30;;;;;;4983511;28;20467;-64
2023/10/26 05:32:50;;;;;;;1.10;0.90;;;21.00;95.00;;;;;;4984203;28;21030;-63
2023/10/26 05:35:18;;;;;;;0.90;0.70;;;20.90;95.00;;;;;;4983195;28;20450;-63
2023/10/26 05:37:45;;;;;;;1.00;0.80;;;20.90;95.00;;;;;;4982370;28;20215;-63
2023/10/26 05:40:13;;;;;;;1.40;0.90;;;20.90;95.00;;;;;;4981758;28;20482;-63
2023/10/26 05:42:40;;;;;;;1.10;0.82;;;20.90;95.00;;;;;;4983517;28;20460;-63
2023/10/26 05:45:08;;;;;;;1.00;0.90;;;20.90;95.00;;;;;;4982936;28;21857;-63
2023/10/26 05:47:35;;;;;;;0.90;0.70;;;20.90;95.00;;;;;;4984794;28;20485;-63
2023/10/26 05:50:03;;;;;;;1.10;1.00;;;20.90;95.00;;;;;;4981464;28;20492;-63
2023/10/26 05:52:29;;;;;;;1.10;0.90;;;20.90;95.00;;;;;;4985801;28;20673;-63
2023/10/26 05:54:56;;;;;;;1.10;0.90;;;20.90;95.00;;;;;;4983919;28;20460;-63
2023/10/26 05:57:25;;;;;;;1.00;0.90;;;20.80;95.00;;;;;;4986977;28;20211;-63
2023/10/26 05:59:53;;;;;;;1.03;0.90;;;20.90;95.10;;;;;;4981659;28;20207;-63
2023/10/26 06:02:20;;;;;;;1.20;0.80;;;20.90;95.10;;;;;;4984366;28;20735;-63
2023/10/26 06:04:46;;;;;;;1.03;0.93;;;20.90;95.10;;;;;;4984643;28;20470;-63
2023/10/26 06:07:14;;;;;;;1.50;1.20;;;20.90;95.10;;;;;;4983679;28;20479;-63
2023/10/26 06:09:41;;;;;;;1.15;0.85;;;20.90;95.10;;;;;;4983740;28;21083;-63
2023/10/26 06:12:09;;;;;;;1.00;0.83;;;20.80;95.00;;;;;;4984482;28;20204;-63
2023/10/26 06:14:37;;;;;;;1.00;0.80;;;20.80;95.00;;;;;;4983277;28;20907;-63
2023/10/26 06:17:04;;;;;;;1.00;0.90;;;20.80;95.10;;;;;;4982054;28;20554;-63
2023/10/26 06:19:31;;;;;;;1.00;0.70;;;20.80;95.40;;;;;;4984209;28;20471;-63
2023/10/26 06:21:58;;;;;;;1.10;0.80;;;20.80;95.10;;;;;;4982933;28;20452;-63
2023/10/26 06:24:25;;;;;;;1.27;0.93;;;20.80;95.10;;;;;;4980604;28;20947;-63
2023/10/26 06:26:52;;;;;;;1.03;0.90;;;20.80;95.20;;;;;;4980805;28;20824;-63
2023/10/26 06:29:19;;;;;;;1.10;0.90;;;20.90;95.20;;;;;;4973758;28;20496;-63
2023/10/26 06:31:47;;;;;;;1.08;0.90;;;20.80;95.20;;;;;;4977702;28;20835;-63
2023/10/26 06:34:14;;;;;;;1.87;1.20;;;21.00;95.30;;;;;;4979453;28;20210;-63
2023/10/26 06:36:40;;;;;;;0.90;0.80;;;20.90;95.30;;;;;;4978204;28;20465;-62
2023/10/26 06:39:07;;;;;;;1.08;0.88;;;20.90;95.40;;;;;;4980317;28;20884;-63
2023/10/26 06:41:34;;;;;;;1.00;0.90;;;20.90;95.40;;;;;;4981312;28;20346;-63
2023/10/26 06:44:01;;;;;;;1.20;0.90;;;20.90;95.50;;;;;;4979343;28;20887;-63
2023/10/26 06:46:27;;;;;;;1.08;0.82;;;21.00;95.50;;;;;;4980134;28;20467;-63
2023/10/26 06:48:55;;;;;;;1.00;0.90;;;21.00;95.60;;;;;;4979748;28;20224;-62
2023/10/26 06:51:23;;;;;;;1.00;0.80;;;21.00;95.60;;;;;;4980022;28;20460;-63
2023/10/26 06:53:50;;;;;;;1.20;1.10;;;21.00;95.60;;;;;;4981190;28;20587;-63
2023/10/26 06:56:16;;;;;;;1.00;0.80;;;21.00;95.60;;;;;;4979958;28;20913;-63
2023/10/26 06:58:43;;;;;;;1.10;0.90;;;21.00;95.60;;;;;;4981886;28;20824;-63
2023/10/26 07:01:10;;;;;;;1.27;0.90;;;21.00;95.60;;;;;;4981246;28;20470;-63
2023/10/26 07:03:37;;;;;;;0.90;0.70;;;21.00;95.60;;;;;;4980410;28;20466;-62
2023/10/26 07:06:05;;;;;;;1.00;0.80;;;21.00;95.60;;;;;;4981225;28;21082;-62
2023/10/26 07:08:33;;;;;;;1.17;0.97;;;21.10;95.70;;;;;;4981938;28;20820;-65
2023/10/26 07:11:00;;;;;;;1.10;0.90;;;21.10;95.70;;;;;;4979520;28;20816;-63
2023/10/26 07:13:27;;;;;;;1.10;0.90;;;21.10;95.70;;;;;;4977031;28;20577;-63
2023/10/26 07:15:53;;;;;;;1.33;0.90;;;21.10;95.60;;;;;;4979342;28;21048;-63
2023/10/26 07:18:20;;;;;;;1.10;0.90;;;21.10;95.70;;;;;;4979730;28;20470;-62
2023/10/26 07:20:48;;;;;;;1.00;0.90;;;21.10;95.60;;;;;;4980980;28;20471;-63
2023/10/26 07:23:17;;;;;;;1.00;0.83;;;21.20;95.60;;;;;;4980579;28;20961;-63
2023/10/26 07:25:44;;;;;;;1.10;0.90;;;21.20;95.70;;;;;;4981005;28;21241;-63
2023/10/26 07:28:12;;;;;;;1.63;1.10;;;21.20;95.70;;;;;;4979880;28;20821;-63
2023/10/26 07:30:42;;;;;;;1.27;0.90;;;21.20;95.60;;;;;;4982286;28;20467;-62
2023/10/26 07:33:09;;;;;;;0.90;0.70;;;21.20;95.70;;;;;;4980957;28;20513;-62
2023/10/26 07:35:40;;;;;;;1.07;0.80;;;21.30;95.70;;;;;;4979460;28;20471;-63
2023/10/26 07:38:07;;;;;;;1.00;0.80;;;21.20;95.70;;;;;;4980583;28;20862;-63
2023/10/26 07:40:36;;;;;;;1.07;0.97;;;21.30;95.70;;;;;;4978035;28;20467;-63
2023/10/26 07:43:03;;;;;;;1.10;1.00;;;21.30;95.70;;;;;;4978241;28;20956;-62
2023/10/26 07:45:30;;;;;;;1.10;0.97;;;21.20;95.60;;;;;;4980213;28;20464;-63
2023/10/26 07:47:57;;;;;;;1.37;0.80;;;21.20;95.60;;;;;;4980610;28;20474;-64
2023/10/26 07:50:23;;;;;;;1.00;0.77;;;21.30;95.70;;;;;;4980110;28;20464;-62
2023/10/26 07:52:50;;;;;;;1.10;0.80;;;21.30;95.70;;;;;;4981736;28;20474;-63
2023/10/26 07:55:17;;;;;;;1.27;1.00;;;21.30;95.80;;;;;;4979803;28;21623;-63
2023/10/26 07:57:46;;;;;;;1.20;0.90;;;21.40;95.80;;;;;;4979670;28;21311;-63
2023/10/26 08:00:14;;;;;;;1.47;0.93;;;21.30;95.80;;;;;;4980271;28;20855;-62
2023/10/26 08:02:41;;;;;;;1.20;1.00;;;21.30;95.80;;;;;;4982588;28;20474;-63
2023/10/26 08:05:09;;;;;;;1.20;1.10;;;21.40;95.90;;;;;;4983759;28;20459;-63
2023/10/26 08:07:37;;;;;;;2.50;1.03;;;21.40;95.90;;;;;;4981935;28;21032;-63
2023/10/26 08:10:04;;;;;;;1.10;1.00;;;21.30;95.80;;;;;;4982484;28;20571;-63
2023/10/26 08:12:31;;;;;;;1.00;0.90;;;21.40;95.90;;;;;;4983760;28;20489;-63
2023/10/26 08:14:59;;;;;;;1.93;1.07;;;21.40;95.90;;;;;;4982140;28;20493;-62
2023/10/26 08:17:26;;;;;;;1.53;0.90;;;21.40;96.00;;;;;;4984315;28;20464;-63
2023/10/26 08:19:54;;;;;;;1.10;0.97;;;21.30;96.00;;;;;;4984506;28;20561;-63
2023/10/26 08:22:21;;;;;;;1.10;1.00;;;21.40;96.00;;;;;;4987914;28;21003;-63
2023/10/26 08:24:48;;;;;;;1.40;1.20;;;21.40;95.90;;;;;;4985653;28;20515;-63
2023/10/26 08:27:15;;;;;;;1.50;1.33;;;21.40;95.90;;;;;;4983570;28;20463;-63
2023/10/26 08:29:41;;;;;;;2.57;2.37;;;21.50;95.80;;;;;;4984463;28;20863;-63
2023/10/26 08:32:10;;;;;;;2.37;2.17;;;21.40;95.60;;;;;;4984645;28;20532;-63
2023/10/26 08:34:36;;;;;;;2.20;2.00;;;21.40;95.50;;;;;;4985417;28;20459;-63
2023/10/26 08:37:04;;;;;;;2.57;1.70;;;21.40;95.40;;;;;;4985336;28;21217;-63
2023/10/26 08:39:31;;;;;;;1.50;1.40;;;21.40;95.30;;;;;;4984294;28;20466;-63
2023/10/26 08:41:59;;;;;;;2.60;1.60;;;21.40;95.20;;;;;;4981392;28;20896;-63
2023/10/26 08:44:27;;;;;;;1.40;1.30;;;21.40;95.20;;;;;;4985143;28;20470;-63
2023/10/26 08:46:59;;;;;;;2.20;1.23;;;21.40;95.20;;;;;;4984486;28;20480;-63
2023/10/26 08:49:28;;;;;;;2.37;1.40;;;21.30;95.20;;;;;;4986219;28;20908;-63
2023/10/26 08:51:55;;;;;;;1.80;1.70;;;21.30;95.20;;;;;;4985653;28;20877;-63
2023/10/26 08:54:22;;;;;;;2.63;2.40;;;21.50;95.50;;;;;;4984369;28;20466;-63
2023/10/26 08:56:49;;;;;;;1.70;1.60;;;21.40;95.80;;;;;;4983592;28;20466;-63
2023/10/26 08:59:16;;;;;;;2.07;1.87;;;21.40;95.40;;;;;;4983089;28;21413;-63
2023/10/26 09:01:46;;;;;;;5.03;2.10;;;21.50;95.50;;;;;;4983996;28;20739;-63
2023/10/26 09:04:14;;;;;;;1.93;1.80;;;21.40;95.40;;;;;;4983281;28;20558;-63
2023/10/26 09:06:45;;;;;;;1.67;1.57;;;21.40;95.50;;;;;;4984182;28;20466;-63
2023/10/26 09:09:11;;;;;;;2.80;2.30;;;21.50;95.50;;;;;;4984452;28;20470;-63
2023/10/26 09:11:38;;;;;;;3.00;2.30;;;21.40;95.40;;;;;;4982192;28;20474;-63
2023/10/26 09:14:16;;;;;;;2.93;1.63;;;21.40;95.40;;;;;;4984092;28;20729;-62
2023/10/26 09:16:45;;;;;;;2.67;1.87;;;21.40;95.40;;;;;;4983687;28;20458;-63
2023/10/26 09:19:12;;;;;;;2.50;1.83;;;21.40;95.30;;;;;;4982090;28;20889;-63
2023/10/26 09:21:50;;;;;;;2.70;2.00;;;21.40;95.30;;;;;;4982819;28;21109;-63
2023/10/26 09:24:25;;;;;;;1.77;1.67;;;21.40;95.30;;;;;;4983056;28;20463;-63
2023/10/26 09:26:53;;;;;;;2.33;2.10;;;21.40;95.30;;;;;;4982660;28;20981;-63
2023/10/26 09:29:20;;;;;;;2.30;1.70;;;21.40;95.30;;;;;;4981797;28;20982;-64
2023/10/26 09:31:54;;;;;;;1.93;1.83;;;21.40;95.30;;;;;;4982486;28;20561;-63
2023/10/26 09:34:24;;;;;;;2.20;2.00;;;21.30;95.30;;;;;;4974235;28;20475;-63
2023/10/26 09:37:00;;;;;;;2.20;2.00;;;21.40;95.40;;;;;;4965963;28;20956;-63
2023/10/26 09:39:30;;;;;;;1.60;1.40;;;21.30;95.50;;;;;;4966719;28;20480;-62
2023/10/26 09:41:59;;;;;;;1.57;1.47;;;21.40;95.60;;;;;;4973535;28;21070;-61
2023/10/26 09:44:25;;;;;;;2.13;1.30;;;21.40;95.60;;;;;;4975693;28;20463;-62
2023/10/26 09:46:52;;;;;;;1.40;1.30;;;21.50;95.70;;;;;;4980933;28;20470;-63
2023/10/26 09:49:21;;;;;;;1.93;1.37;;;21.50;95.60;;;;;;4985258;28;20775;-62
2023/10/26 09:51:48;;;;;;;2.13;1.40;;;21.40;96.00;;;;;;4988297;28;20464;-62
2023/10/26 09:54:18;;;;;;;1.83;1.40;;;21.40;95.80;;;;;;4977593;28;20495;-62
2023/10/26 09:56:50;;;;;;;2.23;1.23;;;21.40;96.20;;;;;;4965152;28;21078;-63
2023/10/26 09:59:17;;;;;;;4.33;1.40;;;21.40;95.80;;;;;;4971236;28;20458;-62
2023/10/26 10:01:45;;;;;;;3.53;2.27;;;21.50;95.90;;;;;;4983679;28;20474;-62
2023/10/26 10:04:13;;;;;;;2.43;2.13;;;21.60;96.00;;;;;;4984950;28;22346;-63
2023/10/26 10:06:51;;;;;;;2.13;1.80;;;21.60;95.90;;;;;;4984685;28;20887;-63
2023/10/26 10:09:23;;;;;;;7.10;1.97;;;21.50;95.70;;;;;;4984525;28;20490;-64
2023/10/26 10:12:23;;;;;;;1.63;1.53;;;21.50;95.80;;;;;;4986176;28;20460;-61
2023/10/26 10:14:58;;;;;;;2.67;1.53;;;21.60;95.90;;;;;;4972412;28;20463;-62
2023/10/26 10:18:13;;;;;;;1.60;1.50;;;21.60;95.90;;;;;;4982845;28;20888;-62
2023/10/26 10:20:42;;;;;;;2.30;1.80;;;21.60;95.90;;;;;;4966933;28;20925;-61
2023/10/26 10:23:09;;;;;;;1.40;1.20;;;21.60;95.90;;;;;;4963116;28;20477;-62
2023/10/26 10:26:03;;;;;;;2.40;1.20;;;21.50;95.90;;;;;;4964945;28;20471;-61
2023/10/26 10:28:54;;;;;;;2.00;1.60;;;21.60;96.00;;;;;;4967411;28;20480;-63
2023/10/26 10:31:38;;;;;;;2.07;1.27;;;21.60;96.10;;;;;;4963444;28;20462;-63
2023/10/26 10:34:05;;;;;;;9.23;1.43;;;21.60;96.20;;;;;;4962179;28;20459;-62
2023/10/26 10:37:06;;;;;;;1.77;1.30;;;21.60;96.10;;;;;;4964907;28;21035;-62
2023/10/26 10:39:33;;;;;;;4.50;1.60;;;21.60;96.10;;;;;;4961809;28;20558;-62
2023/10/26 10:42:04;;;;;;;1.57;1.47;;;21.60;96.10;;;;;;4962388;28;20911;-64
2023/10/26 10:44:35;;;;;;;1.37;1.27;;;21.60;96.10;;;;;;4961981;28;20517;-63
2023/10/26 10:47:02;;;;;;;2.80;1.57;;;21.60;96.10;;;;;;4955499;28;20494;-64
2023/10/26 10:49:29;;;;;;;2.30;1.77;;;21.60;96.10;;;;;;4961208;28;20511;-63
2023/10/26 10:51:57;;;;;;;3.40;1.20;;;21.60;96.10;;;;;;4963695;28;21047;-63
2023/10/26 10:54:23;;;;;;;2.03;1.23;;;21.60;96.10;;;;;;4964820;28;21319;-65
2023/10/26 10:56:50;;;;;;;1.90;1.60;;;21.60;96.10;;;;;;4963016;28;20455;-63
2023/10/26 10:59:20;;;;;;;1.70;1.60;;;21.70;96.20;;;;;;4975234;28;20820;-64
2023/10/26 11:01:48;;;;;;;1.97;1.13;;;21.60;96.10;;;;;;4979758;28;20470;-64
2023/10/26 11:04:15;;;;;;;2.63;1.67;;;21.60;96.10;;;;;;4977899;28;20464;-64
2023/10/26 11:06:47;;;;;;;2.03;1.40;;;21.60;96.10;;;;;;4981256;28;20462;-64
2023/10/26 11:09:29;;;;;;;1.50;1.30;;;21.60;96.20;;;;;;4980180;28;20465;-64
2023/10/26 11:11:56;;;;;;;1.77;1.53;;;21.60;96.20;;;;;;4981155;28;20809;-62
2023/10/26 11:14:24;;;;;;;3.67;1.60;;;21.60;96.20;;;;;;4975141;28;20468;-62
2023/10/26 11:16:52;;;;;;;1.40;1.30;;;21.70;96.30;;;;;;4979903;28;20465;-62
2023/10/26 11:19:19;;;;;;;2.03;1.20;;;21.60;96.30;;;;;;4969143;28;20467;-63
2023/10/26 11:21:46;;;;;;;1.30;1.20;;;21.70;96.40;;;;;;4959150;28;20605;-64
2023/10/26 11:24:18;;;;;;;1.63;1.50;;;21.60;96.30;;;;;;4975107;28;20617;-63
2023/10/26 11:27:06;;;;;;;2.40;1.37;;;21.70;96.40;;;;;;4978129;28;20496;-64
2023/10/26 11:29:35;;;;;;;1.87;1.23;;;21.70;96.40;;;;;;4980856;28;20856;-64
2023/10/26 11:32:01;;;;;;;1.80;1.37;;;21.70;96.40;;;;;;4978785;28;21354;-63
2023/10/26 11:34:28;;;;;;;1.60;1.50;;;21.60;96.40;;;;;;4975959;28;20467;-63
2023/10/26 11:36:57;;;;;;;1.30;1.20;;;21.60;96.30;;;;;;4975155;28;20677;-63
2023/10/26 11:39:24;;;;;;;2.07;1.20;;;21.70;96.40;;;;;;4975303;28;20467;-64
2023/10/26 11:41:54;;;;;;;1.83;1.17;;;21.70;96.40;;;;;;4976268;28;20956;-64
2023/10/26 11:44:25;;;;;;;1.57;1.10;;;21.70;96.80;;;;;;4974885;28;20462;-64
2023/10/26 11:46:59;;;;;;;1.50;1.40;;;21.70;96.50;;;;;;4978813;28;20883;-63
2023/10/26 11:49:38;;;;;;;1.20;1.10;;;21.70;96.50;;;;;;4978310;28;20786;-65
2023/10/26 11:52:05;;;;;;;1.80;1.50;;;21.70;96.50;;;;;;4974635;28;20550;-63
2023/10/26 11:54:32;;;;;;;2.53;1.40;;;21.70;96.40;;;;;;4967570;28;20464;-63
2023/10/26 11:56:58;;;;;;;2.23;1.33;;;21.70;96.40;;;;;;4973539;28;20452;-62
2023/10/26 11:59:25;;;;;;;3.00;1.60;;;21.70;96.30;;;;;;4966246;28;20456;-62
2023/10/26 12:01:52;;;;;;;1.50;1.40;;;21.80;96.30;;;;;;4982896;28;20474;-63
2023/10/26 12:04:20;;;;;;;1.87;1.77;;;21.80;96.40;;;;;;4981675;28;21069;-63
2023/10/26 12:06:46;;;;;;;1.63;1.53;;;21.80;96.40;;;;;;4978454;28;20455;-62
2023/10/26 12:09:13;;;;;;;1.73;1.63;;;21.70;96.40;;;;;;4984595;28;20496;-63
2023/10/26 12:11:42;;;;;;;2.23;1.53;;;21.80;96.50;;;;;;4966456;28;20499;-61
2023/10/26 12:14:09;;;;;;;1.60;1.47;;;21.70;96.40;;;;;;4962974;28;20574;-63
2023/10/26 12:16:35;;;;;;;1.30;1.20;;;21.80;96.50;;;;;;4966154;28;20467;-63
2023/10/26 12:19:02;;;;;;;1.60;1.50;;;21.80;96.40;;;;;;4968142;28;21022;-62
2023/10/26 12:21:30;;;;;;;1.53;1.27;;;21.80;96.40;;;;;;4966210;28;20467;-63
2023/10/26 12:23:57;;;;;;;2.17;1.33;;;21.80;96.40;;;;;;4966040;28;20852;-64
2023/10/26 12:26:24;;;;;;;1.60;1.30;;;21.80;96.40;;;;;;4967412;28;20506;-62
2023/10/26 12:28:50;;;;;;;2.33;1.80;;;21.90;96.40;;;;;;4965335;28;20463;-63
2023/10/26 12:31:17;;;;;;;2.03;1.40;;;21.80;96.30;;;;;;4961877;28;20486;-62
2023/10/26 12:33:44;;;;;;;1.67;1.57;;;21.80;96.30;;;;;;4966767;28;21083;-61
2023/10/26 12:36:11;;;;;;;1.83;1.70;;;21.80;96.30;;;;;;4963099;28;20963;-63
2023/10/26 12:38:39;;;;;;;2.10;1.90;;;21.80;96.30;;;;;;4966223;28;21253;-62
2023/10/26 12:41:05;;;;;;;1.67;1.47;;;21.80;96.30;;;;;;4961844;28;20967;-63
2023/10/26 12:43:32;;;;;;;2.40;1.97;;;21.90;96.30;;;;;;4963720;28;20475;-61
2023/10/26 12:45:59;;;;;;;1.67;1.53;;;21.80;96.30;;;;;;4961278;28;20466;-62
2023/10/26 12:48:26;;;;;;;1.80;1.47;;;21.80;96.30;;;;;;4961295;28;20463;-61
2023/10/26 12:50:52;;;;;;;1.57;1.13;;;21.80;96.30;;;;;;4969921;28;22975;-63
2023/10/26 12:53:19;;;;;;;1.70;1.47;;;21.80;96.30;;;;;;4963779;28;20964;-62